METAR Data
IDs: Format: Raw Decoded Include TAF

Data at: 1819 UTC 21 Sep 2018

KAUS 211753Z COR 17009KT 10SM SCT024CB SCT040 BKN120 OVC250 31/24 A2994 RMK AO2 SLP128 CB SW-W MOV NE 60000 T03060244 10311 20261 58003
KAUS 211655Z 18011KT 10SM SCT025 SCT036 BKN045 30/24 A2996 RMK AO2 T03000244
KAUS 211653Z 18012KT 10SM BKN025 BKN036 OVC120 30/24 A2996 RMK AO2 SLP134 T03000244
KAUS 211553Z 17010KT 10SM BKN016 BKN022 OVC120 29/25 A2997 RMK AO2 RAE1455B31E52 SLP136 P0000 T02890250
KAUS 211453Z 17010KT 10SM -RA FEW011 BKN019 OVC025 28/26 A2995 RMK AO2 RAB45 SLP132 P0000 60000 T02780256 51010
KAUS 211353Z 17006KT 9SM BKN008 OVC016 27/26 A2995 RMK AO2 RAB13E42 SLP130 P0000 T02670256 $
KAUS 211253Z 17006KT 8SM BKN008 BKN023 OVC120 26/25 A2993 RMK AO2 RAB07E30 SLP126 P0000 T02610250 $
KAUS 211234Z 17006KT 9SM BKN008 BKN023 OVC120 26/25 A2993 RMK AO2 RAB07E30 P0000 T02610250 $
KAUS 211216Z 17007KT 10SM -RA FEW008 SCT023 OVC110 26/25 A2993 RMK AO2 RAB07 P0000 T02610250
KAUS 211153Z 16007KT 10SM BKN015 BKN021 OVC028 26/25 A2992 RMK AO2 RAB10E33 SLP122 P0000 60000 70027 T02610250 10267 20256 53002
KAUS 211146Z 17007KT 9SM BKN015 BKN021 OVC028 26/25 A2992 RMK AO2 RAB10E33 P0000 T02610250
KAUS 211053Z 18008KT 10SM FEW008 BKN011 BKN020 26/25 A2992 RMK AO2 SLP120 T02610250
KAUS 210953Z 17009KT 10SM BKN012 BKN017 BKN031 26/25 A2991 RMK AO2 SLP120 T02610250
KAUS 210853Z 18008KT 10SM OVC011 26/25 A2992 RMK AO2 RAB0755E04 SLP118 P0000 60000 T02610250 58006
KAUS 210753Z 17006KT 9SM OVC009 26/25 A2993 RMK AO2 RAB23E39 SLP122 P0000 T02610250
KAUS 210724Z 17004KT 10SM -RA OVC010 26/25 A2993 RMK AO2 RAB23 P0000 T02610250
KAUS 210653Z 17006KT 10SM OVC009 26/25 A2994 RMK AO2 SLP125 T02610250
KAUS 210553Z 00000KT 10SM OVC007 26/24 A2993 RMK AO2 RAE40 SLP126 P0000 60002 T02560244 10256 20244 403280239 58004
KAUS 210541Z 00000KT 10SM BKN009 OVC014 25/24 A2993 RMK AO2 RAE40 P0000 T02500244
KAUS 210453Z 11003KT 6SM -RA BR FEW005 SCT018 SCT050 OVC150 25/24 A2995 RMK AO2 RAB10 SLP130 P0001 T02500239
KAUS 210353Z 11003KT 10SM FEW009 SCT017 OVC150 25/24 A2996 RMK AO2 SLP133 T02500239
KAUS 210327Z 00000KT 10SM FEW008 BKN015 OVC200 24/24 A2995 RMK AO2 T02440239
KAUS 210253Z 08004KT 10SM BKN009 OVC015 25/24 A2995 RMK AO2 SLP131 60001 T02500239 53014
KAUS 210241Z 09004KT 10SM BKN009 OVC015 24/23 A2994 RMK AO2 T02440233
KAUS 210153Z 09003KT 10SM FEW030 OVC150 24/23 A2993 RMK AO2 SLP125 T02440233
KAUS 210053Z 07004KT 10SM FEW022 SCT030 OVC110 24/23 A2991 RMK AO2 RAE12 SLP119 P0001 T02440228
KAUS 202353Z 04004KT 9SM -RA FEW010 SCT060 BKN095 24/23 A2990 RMK AO2 SLP117 P0007 60024 T02440233 10328 20244 50010
KAUS 202253Z 16008KT 3SM RA BR FEW065 OVC095 24/23 A2992 RMK AO2 SLP121 P0012 T02440228
KAUS 202153Z 15013G25KT 9SM R17L/5000VP6000FT -RA FEW031 BKN046 BKN060 24/23 A2991 RMK AO2 PK WND 15034/2129 LTG DSNT ALQDS RAE04B38 SLP119 P0004 T02440228
KAUS 202053Z 16008KT 10SM -RA FEW046 SCT065 BKN110 30/23 A2988 RMK AO2 LTG DSNT SE RAB48 SLP105 P0000 60001 T03000228 56026
KAUS 201953Z 18011G19KT 10SM SCT039 BKN150 32/22 A2989 RMK AO2 LTG DSNT SW-NW SLP110 T03170217
KAUS 201853Z 16009KT 10SM SCT030 SCT035 BKN046 BKN150 31/23 A2993 RMK AO2 LTG DSNT N AND NE RAB13E20 SLP123 P0001 T03060233
KAUS 201753Z 15010KT 10SM SCT015 SCT025 BKN031 OVC150 29/24 A2995 RMK AO2 LTG DSNT W-N RAE19B21E38 TSB19E50 SLP132 TS MOV N P0001 60001 T02940244 10294 20244 58006
KAUS 201738Z 15010KT 10SM TS SCT015CB SCT025 BKN150 BKN200 29/26 A2996 RMK AO2 LTG DSNT NW-E RAE19B21E38 TSB19 OCNL LTGICCC N TS N MOV N P0001 T02890256
KAUS 201720Z 09004KT 9SM R17L/1800VP6000FT TS BKN015CB OVC025 27/24 A2997 RMK AO2 LTG DSNT NW-E RAE19 TSB19 FRQ LTGICCC N TS N MOV N P0001 T02720244
KAUS 201700Z 08005KT 5SM R17L/2200V6000FT -RA BR BKN016 BKN026 OVC044 27/24 A2997 RMK AO2 LTG DSNT E AND W AND NW P0001 T02670244
KAUS 201653Z 11008KT 10SM R17L/2400VP6000FT -RA SCT018 SCT026 OVC044 28/25 A2997 RMK AO2 LTG DSNT E AND W RAB24 SLP137 P0000 T02780250
KAUS 201640Z 17008KT 10SM -RA SCT016 BKN031 OVC044 28/25 A2998 RMK AO2 LTG DSNT E RAB24 CIG 018 RWY17R P0000 T02830250
KAUS 201616Z 15007KT 10SM FEW011 SCT016 BKN028 28/24 A2998 RMK AO2 T02830244
KAUS 201553Z 16007KT 10SM BKN010 OVC014 28/25 A2998 RMK AO2 SLP141 T02780250
KAUS 201541Z 15008KT 10SM BKN010 OVC014 27/24 A2998 RMK AO2 LTG DSNT SW T02720244
KAUS 201453Z 14005KT 10SM BKN006 OVC015 27/25 A2997 RMK AO2 RAB33E42 SLP138 P0000 60000 T02670250 53008
KAUS 201353Z 12004KT 8SM BKN007 OVC016 26/24 A2996 RMK AO2 SLP135 T02610244
KAUS 201253Z 15005KT 7SM BKN008 BKN014 OVC200 26/24 A2995 RMK AO2 SLP131 BKN008 V SCT T02560239
KAUS 201250Z 15004KT 7SM BKN008 BKN014 OVC200 26/24 A2995 RMK AO2 BKN008 V SCT
KAUS 201235Z 16004KT 8SM SCT008 SCT014 BKN150 OVC200 25/24 A2994 RMK AO2 T02500239
KAUS 201217Z 00000KT 9SM BKN009 24/23 A2994 RMK AO2 T02440233
KAUS 201153Z 18003KT 9SM SCT008 SCT022 BKN080 BKN150 24/23 A2994 RMK AO2 SLP125 T02440233 10256 20239 53002
KAUS 201129Z 15004KT 10SM BKN009 BKN020 OVC200 25/24 A2993 RMK AO2 T02500239
KAUS 201053Z 18003KT 10SM BKN010 BKN018 OVC030 25/23 A2993 RMK AO2 SLP124 T02500233
KAUS 201021Z 17003KT 10SM SCT010 BKN018 BKN030 25/23 A2993 RMK AO2 T02500233
KAUS 200953Z 11003KT 10SM BKN013 OVC200 25/23 A2993 RMK AO2 SLP123 T02500233
KAUS 200853Z 18003KT 10SM FEW012 BKN200 24/23 A2993 RMK AO2 SLP123 T02440228 58009
KAUS 200753Z 00000KT 10SM FEW012 BKN200 24/23 A2995 RMK AO2 SLP130 T02440228
KAUS 200653Z 19003KT 10SM FEW150 BKN200 25/23 A2996 RMK AO2 SLP133 T02500228